sensor_id;sensor_type;location;lat;lon;timestamp;temperature;humidity
20654;DHT22;21083;50.898;4.902;2024-01-11T00:00:19;-2.40;99.90
20654;DHT22;21083;50.898;4.902;2024-01-11T00:02:46;-2.40;99.90
20654;DHT22;21083;50.898;4.902;2024-01-11T00:05:13;-2.40;99.90
20654;DHT22;21083;50.898;4.902;2024-01-11T00:07:41;-2.40;99.90
20654;DHT22;21083;50.898;4.902;2024-01-11T00:10:08;-2.40;99.90
20654;DHT22;21083;50.898;4.902;2024-01-11T00:12:35;-2.50;99.90
20654;DHT22;21083;50.898;4.902;2024-01-11T00:15:03;-2.50;99.90
20654;DHT22;21083;50.898;4.902;2024-01-11T00:17:30;-2.50;99.90
20654;DHT22;21083;50.898;4.902;2024-01-11T00:19:57;-2.50;99.90
20654;DHT22;21083;50.898;4.902;2024-01-11T00:22:24;-2.60;99.90
20654;DHT22;21083;50.898;4.902;2024-01-11T00:24:52;-2.60;99.90
20654;DHT22;21083;50.898;4.902;2024-01-11T00:27:19;-2.50;99.90
20654;DHT22;21083;50.898;4.902;2024-01-11T00:29:46;-2.60;99.90
20654;DHT22;21083;50.898;4.902;2024-01-11T00:32:13;-2.60;99.90
20654;DHT22;21083;50.898;4.902;2024-01-11T00:34:40;-2.60;99.90
20654;DHT22;21083;50.898;4.902;2024-01-11T00:37:07;-2.70;99.90
20654;DHT22;21083;50.898;4.902;2024-01-11T00:39:34;-2.60;99.90
20654;DHT22;21083;50.898;4.902;2024-01-11T00:42:03;-2.60;99.90
20654;DHT22;21083;50.898;4.902;2024-01-11T00:44:30;-2.70;99.90
20654;DHT22;21083;50.898;4.902;2024-01-11T00:46:57;-2.70;99.90
20654;DHT22;21083;50.898;4.902;2024-01-11T00:49:24;-2.70;99.90
20654;DHT22;21083;50.898;4.902;2024-01-11T00:51:51;-2.60;99.90
20654;DHT22;21083;50.898;4.902;2024-01-11T00:54:18;-2.70;99.90
20654;DHT22;21083;50.898;4.902;2024-01-11T00:56:45;-2.70;99.90
20654;DHT22;21083;50.898;4.902;2024-01-11T00:59:13;-2.70;99.90
20654;DHT22;21083;50.898;4.902;2024-01-11T01:01:40;-2.70;99.90
20654;DHT22;21083;50.898;4.902;2024-01-11T01:04:07;-2.80;99.90
20654;DHT22;21083;50.898;4.902;2024-01-11T01:06:33;-2.80;99.90
20654;DHT22;21083;50.898;4.902;2024-01-11T01:09:00;-2.70;99.90
20654;DHT22;21083;50.898;4.902;2024-01-11T01:11:28;-2.70;99.90
20654;DHT22;21083;50.898;4.902;2024-01-11T01:13:55;-2.80;99.90
20654;DHT22;21083;50.898;4.902;2024-01-11T01:16:23;-2.80;99.90
20654;DHT22;21083;50.898;4.902;2024-01-11T01:18:50;-2.80;99.90
20654;DHT22;21083;50.898;4.902;2024-01-11T01:21:17;-2.80;99.90
20654;DHT22;21083;50.898;4.902;2024-01-11T01:23:44;-2.90;99.90
20654;DHT22;21083;50.898;4.902;2024-01-11T01:26:11;-2.90;99.90
20654;DHT22;21083;50.898;4.902;2024-01-11T01:28:38;-2.90;99.90
20654;DHT22;21083;50.898;4.902;2024-01-11T01:31:05;-3.00;99.90
20654;DHT22;21083;50.898;4.902;2024-01-11T01:33:34;-2.90;99.90
20654;DHT22;21083;50.898;4.902;2024-01-11T01:36:00;-2.90;99.90
20654;DHT22;21083;50.898;4.902;2024-01-11T01:38:27;-2.90;99.90
20654;DHT22;21083;50.898;4.902;2024-01-11T01:40:56;-2.90;99.90
20654;DHT22;21083;50.898;4.902;2024-01-11T01:43:23;-2.90;99.90
20654;DHT22;21083;50.898;4.902;2024-01-11T01:45:50;-2.90;99.90
20654;DHT22;21083;50.898;4.902;2024-01-11T01:48:17;-3.00;99.90
20654;DHT22;21083;50.898;4.902;2024-01-11T01:50:46;-3.00;99.90
20654;DHT22;21083;50.898;4.902;2024-01-11T01:53:17;-3.00;99.90
20654;DHT22;21083;50.898;4.902;2024-01-11T01:55:44;-3.00;99.90
20654;DHT22;21083;50.898;4.902;2024-01-11T01:58:12;-3.00;99.90
20654;DHT22;21083;50.898;4.902;2024-01-11T02:00:39;-3.10;99.90
20654;DHT22;21083;50.898;4.902;2024-01-11T02:03:08;-3.10;99.90
20654;DHT22;21083;50.898;4.902;2024-01-11T02:05:36;-3.10;99.90
20654;DHT22;21083;50.898;4.902;2024-01-11T02:08:07;-3.20;99.90
20654;DHT22;21083;50.898;4.902;2024-01-11T02:10:35;-3.10;99.90
20654;DHT22;21083;50.898;4.902;2024-01-11T02:13:02;-3.20;99.90
20654;DHT22;21083;50.898;4.902;2024-01-11T02:15:30;-3.20;99.90
20654;DHT22;21083;50.898;4.902;2024-01-11T02:17:57;-3.20;99.90
20654;DHT22;21083;50.898;4.902;2024-01-11T02:20:24;-3.20;99.90
20654;DHT22;21083;50.898;4.902;2024-01-11T02:22:56;-3.20;99.90
20654;DHT22;21083;50.898;4.902;2024-01-11T02:25:26;-3.20;99.90
20654;DHT22;21083;50.898;4.902;2024-01-11T02:27:53;-3.30;99.90
20654;DHT22;21083;50.898;4.902;2024-01-11T02:30:20;-3.20;99.90
20654;DHT22;21083;50.898;4.902;2024-01-11T02:32:48;-3.20;99.90
20654;DHT22;21083;50.898;4.902;2024-01-11T02:35:16;-3.20;99.90
20654;DHT22;21083;50.898;4.902;2024-01-11T02:37:44;-3.20;99.90
20654;DHT22;21083;50.898;4.902;2024-01-11T02:40:13;-3.20;99.90
20654;DHT22;21083;50.898;4.902;2024-01-11T02:42:41;-3.30;99.90
20654;DHT22;21083;50.898;4.902;2024-01-11T02:45:10;-3.30;99.90
20654;DHT22;21083;50.898;4.902;2024-01-11T02:47:37;-3.40;99.90
20654;DHT22;21083;50.898;4.902;2024-01-11T02:50:05;-3.40;99.90
20654;DHT22;21083;50.898;4.902;2024-01-11T02:52:32;-3.40;99.90
20654;DHT22;21083;50.898;4.902;2024-01-11T02:54:59;-3.40;99.90
20654;DHT22;21083;50.898;4.902;2024-01-11T02:57:26;-3.40;99.90
20654;DHT22;21083;50.898;4.902;2024-01-11T02:59:54;-3.40;99.90
20654;DHT22;21083;50.898;4.902;2024-01-11T03:02:21;-3.40;99.90
20654;DHT22;21083;50.898;4.902;2024-01-11T03:04:48;-3.40;99.90
20654;DHT22;21083;50.898;4.902;2024-01-11T03:07:15;-3.40;99.90
20654;DHT22;21083;50.898;4.902;2024-01-11T03:09:42;-3.40;99.90
20654;DHT22;21083;50.898;4.902;2024-01-11T03:12:09;-3.30;99.90
20654;DHT22;21083;50.898;4.902;2024-01-11T03:14:36;-3.30;99.90
20654;DHT22;21083;50.898;4.902;2024-01-11T03:17:05;-3.40;99.90
20654;DHT22;21083;50.898;4.902;2024-01-11T03:19:32;-3.30;99.90
20654;DHT22;21083;50.898;4.902;2024-01-11T03:21:59;-3.30;99.90
20654;DHT22;21083;50.898;4.902;2024-01-11T03:24:28;-3.40;99.90
20654;DHT22;21083;50.898;4.902;2024-01-11T03:26:55;-3.40;99.90
20654;DHT22;21083;50.898;4.902;2024-01-11T03:29:22;-3.40;99.90
20654;DHT22;21083;50.898;4.902;2024-01-11T03:31:49;-3.50;99.90
20654;DHT22;21083;50.898;4.902;2024-01-11T03:34:17;-3.40;99.90
20654;DHT22;21083;50.898;4.902;2024-01-11T03:36:45;-3.40;99.90
20654;DHT22;21083;50.898;4.902;2024-01-11T03:39:11;-3.40;99.90
20654;DHT22;21083;50.898;4.902;2024-01-11T03:41:43;-3.40;99.90
20654;DHT22;21083;50.898;4.902;2024-01-11T03:44:10;-3.40;99.90
20654;DHT22;21083;50.898;4.902;2024-01-11T03:46:37;-3.50;99.90
20654;DHT22;21083;50.898;4.902;2024-01-11T03:49:04;-3.40;99.90
20654;DHT22;21083;50.898;4.902;2024-01-11T03:51:34;-3.60;99.90
20654;DHT22;21083;50.898;4.902;2024-01-11T03:54:01;-3.50;99.90
20654;DHT22;21083;50.898;4.902;2024-01-11T03:56:28;-3.50;99.90
20654;DHT22;21083;50.898;4.902;2024-01-11T03:58:55;-3.50;99.90
20654;DHT22;21083;50.898;4.902;2024-01-11T04:01:22;-3.50;99.90
20654;DHT22;21083;50.898;4.902;2024-01-11T04:03:49;-3.60;99.90
20654;DHT22;21083;50.898;4.902;2024-01-11T04:06:21;-3.70;99.90
20654;DHT22;21083;50.898;4.902;2024-01-11T04:08:51;-3.60;99.90
20654;DHT22;21083;50.898;4.902;2024-01-11T04:11:18;-3.60;99.90
20654;DHT22;21083;50.898;4.902;2024-01-11T04:13:45;-3.50;99.90
20654;DHT22;21083;50.898;4.902;2024-01-11T04:16:11;-3.60;99.90
20654;DHT22;21083;50.898;4.902;2024-01-11T04:18:38;-3.60;99.90
20654;DHT22;21083;50.898;4.902;2024-01-11T04:21:05;-3.70;99.90
20654;DHT22;21083;50.898;4.902;2024-01-11T04:23:32;-3.70;99.90
20654;DHT22;21083;50.898;4.902;2024-01-11T04:26:01;-3.80;99.90
20654;DHT22;21083;50.898;4.902;2024-01-11T04:28:28;-3.80;99.90
20654;DHT22;21083;50.898;4.902;2024-01-11T04:30:55;-3.70;99.90
20654;DHT22;21083;50.898;4.902;2024-01-11T04:33:22;-3.70;99.90
20654;DHT22;21083;50.898;4.902;2024-01-11T04:35:49;-3.70;99.90
20654;DHT22;21083;50.898;4.902;2024-01-11T04:38:16;-3.70;99.90
20654;DHT22;21083;50.898;4.902;2024-01-11T04:40:43;-3.70;99.90
20654;DHT22;21083;50.898;4.902;2024-01-11T04:43:11;-3.60;99.90
20654;DHT22;21083;50.898;4.902;2024-01-11T04:45:38;-3.60;99.90
20654;DHT22;21083;50.898;4.902;2024-01-11T04:48:05;-3.60;99.90
20654;DHT22;21083;50.898;4.902;2024-01-11T04:50:32;-3.70;99.90
20654;DHT22;21083;50.898;4.902;2024-01-11T04:52:59;-3.60;99.90
20654;DHT22;21083;50.898;4.902;2024-01-11T04:55:26;-3.60;99.90
20654;DHT22;21083;50.898;4.902;2024-01-11T04:57:53;-3.70;99.90
20654;DHT22;21083;50.898;4.902;2024-01-11T05:00:21;-3.60;99.90
20654;DHT22;21083;50.898;4.902;2024-01-11T05:02:48;-3.70;99.90
20654;DHT22;21083;50.898;4.902;2024-01-11T05:05:15;-3.70;99.90
20654;DHT22;21083;50.898;4.902;2024-01-11T05:07:42;-3.70;99.90
20654;DHT22;21083;50.898;4.902;2024-01-11T05:10:09;-3.70;99.90
20654;DHT22;21083;50.898;4.902;2024-01-11T05:12:36;-3.70;99.90
20654;DHT22;21083;50.898;4.902;2024-01-11T05:15:05;-3.70;99.90
20654;DHT22;21083;50.898;4.902;2024-01-11T05:17:34;-3.70;99.90
20654;DHT22;21083;50.898;4.902;2024-01-11T05:20:02;-3.70;99.90
20654;DHT22;21083;50.898;4.902;2024-01-11T05:22:29;-3.70;99.90
20654;DHT22;21083;50.898;4.902;2024-01-11T05:24:55;-3.70;99.90
20654;DHT22;21083;50.898;4.902;2024-01-11T05:27:22;-3.70;99.90
20654;DHT22;21083;50.898;4.902;2024-01-11T05:29:49;-3.70;99.90
20654;DHT22;21083;50.898;4.902;2024-01-11T05:32:16;-3.70;99.90
20654;DHT22;21083;50.898;4.902;2024-01-11T05:34:45;-3.70;99.90
20654;DHT22;21083;50.898;4.902;2024-01-11T05:37:12;-3.70;99.90
20654;DHT22;21083;50.898;4.902;2024-01-11T05:39:39;-3.70;99.90
20654;DHT22;21083;50.898;4.902;2024-01-11T05:42:06;-3.80;99.90
20654;DHT22;21083;50.898;4.902;2024-01-11T05:44:33;-3.70;99.90
20654;DHT22;21083;50.898;4.902;2024-01-11T05:47:00;-3.60;99.90
20654;DHT22;21083;50.898;4.902;2024-01-11T05:49:27;-3.60;99.90
20654;DHT22;21083;50.898;4.902;2024-01-11T05:51:55;-3.70;99.90
20654;DHT22;21083;50.898;4.902;2024-01-11T05:54:22;-3.70;99.90
20654;DHT22;21083;50.898;4.902;2024-01-11T05:56:50;-3.70;99.90
20654;DHT22;21083;50.898;4.902;2024-01-11T05:59:21;-3.70;99.90
20654;DHT22;21083;50.898;4.902;2024-01-11T06:01:48;-3.70;99.90
20654;DHT22;21083;50.898;4.902;2024-01-11T06:04:15;-3.70;99.90
20654;DHT22;21083;50.898;4.902;2024-01-11T06:06:43;-3.70;99.90
20654;DHT22;21083;50.898;4.902;2024-01-11T06:09:11;-3.80;99.90
20654;DHT22;21083;50.898;4.902;2024-01-11T06:11:38;-3.80;99.90
20654;DHT22;21083;50.898;4.902;2024-01-11T06:14:05;-3.80;99.90
20654;DHT22;21083;50.898;4.902;2024-01-11T06:16:32;-3.80;99.90
20654;DHT22;21083;50.898;4.902;2024-01-11T06:18:59;-3.80;99.90
20654;DHT22;21083;50.898;4.902;2024-01-11T06:21:26;-3.90;99.90
20654;DHT22;21083;50.898;4.902;2024-01-11T06:23:54;-4.00;99.90
20654;DHT22;21083;50.898;4.902;2024-01-11T06:26:22;-4.00;99.90
20654;DHT22;21083;50.898;4.902;2024-01-11T06:28:49;-3.90;99.90
20654;DHT22;21083;50.898;4.902;2024-01-11T06:31:16;-3.90;99.90
20654;DHT22;21083;50.898;4.902;2024-01-11T06:33:43;-3.90;99.90
20654;DHT22;21083;50.898;4.902;2024-01-11T06:36:10;-3.90;99.90
20654;DHT22;21083;50.898;4.902;2024-01-11T06:38:37;-3.80;99.90
20654;DHT22;21083;50.898;4.902;2024-01-11T06:41:04;-3.80;99.90
20654;DHT22;21083;50.898;4.902;2024-01-11T06:43:33;-3.90;99.90
20654;DHT22;21083;50.898;4.902;2024-01-11T06:46:03;-3.90;99.90
20654;DHT22;21083;50.898;4.902;2024-01-11T06:48:30;-3.90;99.90
20654;DHT22;21083;50.898;4.902;2024-01-11T06:50:57;-3.90;99.90
20654;DHT22;21083;50.898;4.902;2024-01-11T06:53:24;-3.90;99.90
20654;DHT22;21083;50.898;4.902;2024-01-11T06:55:51;-3.90;99.90
20654;DHT22;21083;50.898;4.902;2024-01-11T06:58:21;-4.00;99.90
20654;DHT22;21083;50.898;4.902;2024-01-11T07:00:49;-4.00;99.90
20654;DHT22;21083;50.898;4.902;2024-01-11T07:03:17;-4.00;99.90
20654;DHT22;21083;50.898;4.902;2024-01-11T07:05:44;-4.00;99.90
20654;DHT22;21083;50.898;4.902;2024-01-11T07:08:11;-4.10;99.90
20654;DHT22;21083;50.898;4.902;2024-01-11T07:10:39;-4.10;99.90
20654;DHT22;21083;50.898;4.902;2024-01-11T07:13:07;-4.10;99.90
20654;DHT22;21083;50.898;4.902;2024-01-11T07:15:35;-4.10;99.90
20654;DHT22;21083;50.898;4.902;2024-01-11T07:18:04;-4.20;99.90
20654;DHT22;21083;50.898;4.902;2024-01-11T07:20:31;-4.20;99.90
20654;DHT22;21083;50.898;4.902;2024-01-11T07:22:59;-4.30;99.90
20654;DHT22;21083;50.898;4.902;2024-01-11T07:25:26;-4.30;99.90
20654;DHT22;21083;50.898;4.902;2024-01-11T07:27:53;-4.20;99.90
20654;DHT22;21083;50.898;4.902;2024-01-11T07:30:20;-4.20;99.90
20654;DHT22;21083;50.898;4.902;2024-01-11T07:32:47;-4.30;99.90
20654;DHT22;21083;50.898;4.902;2024-01-11T07:35:15;-4.30;99.90
20654;DHT22;21083;50.898;4.902;2024-01-11T07:37:42;-4.30;99.90
20654;DHT22;21083;50.898;4.902;2024-01-11T07:40:10;-4.30;99.90
20654;DHT22;21083;50.898;4.902;2024-01-11T07:42:37;-4.20;99.90
20654;DHT22;21083;50.898;4.902;2024-01-11T07:45:06;-4.30;99.90
20654;DHT22;21083;50.898;4.902;2024-01-11T07:47:33;-4.30;99.90
20654;DHT22;21083;50.898;4.902;2024-01-11T07:50:00;-4.30;99.90
20654;DHT22;21083;50.898;4.902;2024-01-11T07:52:30;-4.30;99.90
20654;DHT22;21083;50.898;4.902;2024-01-11T07:54:57;-4.20;99.90
20654;DHT22;21083;50.898;4.902;2024-01-11T07:57:31;-4.30;99.90
20654;DHT22;21083;50.898;4.902;2024-01-11T07:59:58;-4.40;99.90
20654;DHT22;21083;50.898;4.902;2024-01-11T08:02:26;-4.40;99.90
20654;DHT22;21083;50.898;4.902;2024-01-11T08:04:53;-4.40;99.90
20654;DHT22;21083;50.898;4.902;2024-01-11T08:07:20;-4.30;99.90
20654;DHT22;21083;50.898;4.902;2024-01-11T08:09:49;-4.20;99.90
20654;DHT22;21083;50.898;4.902;2024-01-11T08:12:15;-4.20;99.90
20654;DHT22;21083;50.898;4.902;2024-01-11T08:14:42;-4.30;99.90
20654;DHT22;21083;50.898;4.902;2024-01-11T08:17:12;-4.20;99.90
20654;DHT22;21083;50.898;4.902;2024-01-11T08:19:39;-4.30;99.90
20654;DHT22;21083;50.898;4.902;2024-01-11T08:22:08;-4.30;99.90
20654;DHT22;21083;50.898;4.902;2024-01-11T08:24:35;-4.30;99.90
20654;DHT22;21083;50.898;4.902;2024-01-11T08:27:04;-4.30;99.90
20654;DHT22;21083;50.898;4.902;2024-01-11T08:29:31;-4.30;99.90
20654;DHT22;21083;50.898;4.902;2024-01-11T08:31:59;-4.30;99.90
20654;DHT22;21083;50.898;4.902;2024-01-11T08:34:26;-4.30;99.90
20654;DHT22;21083;50.898;4.902;2024-01-11T08:36:54;-4.20;99.90
20654;DHT22;21083;50.898;4.902;2024-01-11T08:39:20;-4.20;99.90
20654;DHT22;21083;50.898;4.902;2024-01-11T08:41:48;-4.20;99.90
20654;DHT22;21083;50.898;4.902;2024-01-11T08:44:17;-4.10;99.90
20654;DHT22;21083;50.898;4.902;2024-01-11T08:46:44;-4.00;99.90
20654;DHT22;21083;50.898;4.902;2024-01-11T08:49:11;-3.90;99.90
20654;DHT22;21083;50.898;4.902;2024-01-11T08:51:38;-3.80;99.90
20654;DHT22;21083;50.898;4.902;2024-01-11T08:54:06;-3.70;99.90
20654;DHT22;21083;50.898;4.902;2024-01-11T08:56:35;-3.70;99.90
20654;DHT22;21083;50.898;4.902;2024-01-11T08:59:02;-3.70;99.90
20654;DHT22;21083;50.898;4.902;2024-01-11T09:01:31;-3.60;99.90
20654;DHT22;21083;50.898;4.902;2024-01-11T09:03:58;-3.60;99.90
20654;DHT22;21083;50.898;4.902;2024-01-11T09:06:25;-3.50;99.90
20654;DHT22;21083;50.898;4.902;2024-01-11T09:08:52;-3.50;99.90
20654;DHT22;21083;50.898;4.902;2024-01-11T09:11:19;-3.40;99.90
20654;DHT22;21083;50.898;4.902;2024-01-11T09:13:46;-3.30;99.90
20654;DHT22;21083;50.898;4.902;2024-01-11T09:16:14;-3.20;99.90
20654;DHT22;21083;50.898;4.902;2024-01-11T09:18:45;-3.20;99.90
20654;DHT22;21083;50.898;4.902;2024-01-11T09:21:12;-3.10;99.90
20654;DHT22;21083;50.898;4.902;2024-01-11T09:23:39;-3.00;99.90
20654;DHT22;21083;50.898;4.902;2024-01-11T09:26:06;-3.00;99.90
20654;DHT22;21083;50.898;4.902;2024-01-11T09:28:33;-2.80;99.90
20654;DHT22;21083;50.898;4.902;2024-01-11T09:30:59;-2.70;99.90
20654;DHT22;21083;50.898;4.902;2024-01-11T09:33:27;-2.70;99.90
20654;DHT22;21083;50.898;4.902;2024-01-11T09:35:56;-2.60;99.90
20654;DHT22;21083;50.898;4.902;2024-01-11T09:38:22;-2.50;99.90
20654;DHT22;21083;50.898;4.902;2024-01-11T09:40:54;-2.40;99.90
20654;DHT22;21083;50.898;4.902;2024-01-11T09:43:25;-2.30;99.90
20654;DHT22;21083;50.898;4.902;2024-01-11T09:45:52;-2.10;99.90
20654;DHT22;21083;50.898;4.902;2024-01-11T09:48:20;-2.00;99.90
20654;DHT22;21083;50.898;4.902;2024-01-11T09:50:48;-1.90;99.90
20654;DHT22;21083;50.898;4.902;2024-01-11T09:53:19;-1.80;99.90
20654;DHT22;21083;50.898;4.902;2024-01-11T09:55:48;-1.70;99.90
20654;DHT22;21083;50.898;4.902;2024-01-11T09:58:18;-1.70;99.90
20654;DHT22;21083;50.898;4.902;2024-01-11T10:00:46;-1.50;99.90
20654;DHT22;21083;50.898;4.902;2024-01-11T10:03:14;-1.50;99.90
20654;DHT22;21083;50.898;4.902;2024-01-11T10:05:41;-1.40;99.90
20654;DHT22;21083;50.898;4.902;2024-01-11T10:08:09;-1.30;99.90
20654;DHT22;21083;50.898;4.902;2024-01-11T10:10:37;-1.20;99.90
20654;DHT22;21083;50.898;4.902;2024-01-11T10:13:05;-1.10;99.90
20654;DHT22;21083;50.898;4.902;2024-01-11T10:15:32;-1.00;99.90
20654;DHT22;21083;50.898;4.902;2024-01-11T10:17:59;-0.70;99.90
20654;DHT22;21083;50.898;4.902;2024-01-11T10:20:27;-0.40;99.90
20654;DHT22;21083;50.898;4.902;2024-01-11T10:22:56;-0.10;99.90
20654;DHT22;21083;50.898;4.902;2024-01-11T10:25:24;0.20;99.90
20654;DHT22;21083;50.898;4.902;2024-01-11T10:27:52;0.40;99.90
20654;DHT22;21083;50.898;4.902;2024-01-11T10:30:19;0.50;99.90
20654;DHT22;21083;50.898;4.902;2024-01-11T10:32:48;0.80;99.90
20654;DHT22;21083;50.898;4.902;2024-01-11T10:35:16;1.00;99.90
20654;DHT22;21083;50.898;4.902;2024-01-11T10:37:44;1.30;99.90
20654;DHT22;21083;50.898;4.902;2024-01-11T10:40:12;1.70;99.90
20654;DHT22;21083;50.898;4.902;2024-01-11T10:42:41;2.10;99.90
20654;DHT22;21083;50.898;4.902;2024-01-11T10:45:14;2.80;99.90
20654;DHT22;21083;50.898;4.902;2024-01-11T10:47:50;3.40;99.90
20654;DHT22;21083;50.898;4.902;2024-01-11T10:50:18;4.00;99.90
20654;DHT22;21083;50.898;4.902;2024-01-11T10:52:58;4.60;99.90
20654;DHT22;21083;50.898;4.902;2024-01-11T10:55:30;5.00;99.90
20654;DHT22;21083;50.898;4.902;2024-01-11T10:57:59;5.40;99.90
20654;DHT22;21083;50.898;4.902;2024-01-11T11:00:28;5.90;99.90
20654;DHT22;21083;50.898;4.902;2024-01-11T11:02:56;6.30;99.90
20654;DHT22;21083;50.898;4.902;2024-01-11T11:05:26;6.70;99.90
20654;DHT22;21083;50.898;4.902;2024-01-11T11:07:54;7.10;99.90
20654;DHT22;21083;50.898;4.902;2024-01-11T11:10:22;7.40;99.90
20654;DHT22;21083;50.898;4.902;2024-01-11T11:12:51;7.70;99.90
20654;DHT22;21083;50.898;4.902;2024-01-11T11:15:22;8.10;99.90
20654;DHT22;21083;50.898;4.902;2024-01-11T11:17:51;8.50;99.90
20654;DHT22;21083;50.898;4.902;2024-01-11T11:20:18;8.80;99.90
20654;DHT22;21083;50.898;4.902;2024-01-11T11:22:48;9.00;99.90
20654;DHT22;21083;50.898;4.902;2024-01-11T11:25:24;9.20;99.90
20654;DHT22;21083;50.898;4.902;2024-01-11T11:27:52;9.50;99.90
20654;DHT22;21083;50.898;4.902;2024-01-11T11:30:20;9.80;99.90
20654;DHT22;21083;50.898;4.902;2024-01-11T11:32:46;10.00;99.90
20654;DHT22;21083;50.898;4.902;2024-01-11T11:35:15;10.10;99.90
20654;DHT22;21083;50.898;4.902;2024-01-11T11:37:42;10.10;99.90
20654;DHT22;21083;50.898;4.902;2024-01-11T11:40:10;10.50;99.90
20654;DHT22;21083;50.898;4.902;2024-01-11T11:42:37;11.00;99.90
20654;DHT22;21083;50.898;4.902;2024-01-11T11:45:05;11.40;99.90
20654;DHT22;21083;50.898;4.902;2024-01-11T11:47:34;11.50;99.90
20654;DHT22;21083;50.898;4.902;2024-01-11T11:50:06;11.70;99.90
20654;DHT22;21083;50.898;4.902;2024-01-11T11:52:37;11.90;99.90
20654;DHT22;21083;50.898;4.902;2024-01-11T11:55:06;12.30;99.90
20654;DHT22;21083;50.898;4.902;2024-01-11T11:57:34;12.50;99.90
20654;DHT22;21083;50.898;4.902;2024-01-11T12:00:02;12.80;99.90
20654;DHT22;21083;50.898;4.902;2024-01-11T12:02:32;13.00;99.90
20654;DHT22;21083;50.898;4.902;2024-01-11T12:05:02;13.40;99.90
20654;DHT22;21083;50.898;4.902;2024-01-11T12:07:29;13.70;99.90
20654;DHT22;21083;50.898;4.902;2024-01-11T12:09:57;14.00;99.90
20654;DHT22;21083;50.898;4.902;2024-01-11T12:12:25;14.10;99.90
20654;DHT22;21083;50.898;4.902;2024-01-11T12:14:53;14.00;99.90
20654;DHT22;21083;50.898;4.902;2024-01-11T12:17:20;13.90;99.90
20654;DHT22;21083;50.898;4.902;2024-01-11T12:19:47;13.90;99.90
20654;DHT22;21083;50.898;4.902;2024-01-11T12:22:14;14.20;99.90
20654;DHT22;21083;50.898;4.902;2024-01-11T12:24:41;14.30;99.90
20654;DHT22;21083;50.898;4.902;2024-01-11T12:27:09;14.30;99.90
20654;DHT22;21083;50.898;4.902;2024-01-11T12:29:38;14.50;99.90
20654;DHT22;21083;50.898;4.902;2024-01-11T12:32:06;14.80;99.90
20654;DHT22;21083;50.898;4.902;2024-01-11T12:34:33;15.00;99.90
20654;DHT22;21083;50.898;4.902;2024-01-11T12:37:00;15.20;99.90
20654;DHT22;21083;50.898;4.902;2024-01-11T12:39:31;15.30;99.90
20654;DHT22;21083;50.898;4.902;2024-01-11T12:41:58;15.40;99.90
20654;DHT22;21083;50.898;4.902;2024-01-11T12:44:26;15.50;99.90
20654;DHT22;21083;50.898;4.902;2024-01-11T12:46:54;15.60;99.90
20654;DHT22;21083;50.898;4.902;2024-01-11T12:49:22;15.70;99.90
20654;DHT22;21083;50.898;4.902;2024-01-11T12:51:49;15.80;99.90
20654;DHT22;21083;50.898;4.902;2024-01-11T12:54:16;16.00;99.90
20654;DHT22;21083;50.898;4.902;2024-01-11T12:56:45;15.70;99.90
20654;DHT22;21083;50.898;4.902;2024-01-11T12:59:12;15.40;99.90
20654;DHT22;21083;50.898;4.902;2024-01-11T13:01:43;15.80;99.90
20654;DHT22;21083;50.898;4.902;2024-01-11T13:04:10;16.30;99.90
20654;DHT22;21083;50.898;4.902;2024-01-11T13:06:37;16.00;99.90
20654;DHT22;21083;50.898;4.902;2024-01-11T13:09:04;15.60;99.90
20654;DHT22;21083;50.898;4.902;2024-01-11T13:11:33;16.00;99.90
20654;DHT22;21083;50.898;4.902;2024-01-11T13:14:00;16.40;99.90
20654;DHT22;21083;50.898;4.902;2024-01-11T13:16:32;16.70;99.90
20654;DHT22;21083;50.898;4.902;2024-01-11T13:19:00;17.40;99.90
20654;DHT22;21083;50.898;4.902;2024-01-11T13:21:28;17.60;99.90
20654;DHT22;21083;50.898;4.902;2024-01-11T13:23:55;17.50;99.90
20654;DHT22;21083;50.898;4.902;2024-01-11T13:26:23;17.20;99.90
20654;DHT22;21083;50.898;4.902;2024-01-11T13:28:50;17.50;99.90
20654;DHT22;21083;50.898;4.902;2024-01-11T13:31:18;17.40;99.90
20654;DHT22;21083;50.898;4.902;2024-01-11T13:33:45;17.20;99.90
20654;DHT22;21083;50.898;4.902;2024-01-11T13:36:14;16.90;99.90
20654;DHT22;21083;50.898;4.902;2024-01-11T13:38:41;17.10;99.90
20654;DHT22;21083;50.898;4.902;2024-01-11T13:41:08;17.40;99.90
20654;DHT22;21083;50.898;4.902;2024-01-11T13:43:35;17.10;99.90
20654;DHT22;21083;50.898;4.902;2024-01-11T13:46:02;17.10;99.90
20654;DHT22;21083;50.898;4.902;2024-01-11T13:48:30;17.30;99.90
20654;DHT22;21083;50.898;4.902;2024-01-11T13:50:57;17.80;99.90
20654;DHT22;21083;50.898;4.902;2024-01-11T13:53:26;18.30;99.70
20654;DHT22;21083;50.898;4.902;2024-01-11T13:55:53;18.60;98.90
20654;DHT22;21083;50.898;4.902;2024-01-11T14:44:34;18.20;95.10
20654;DHT22;21083;50.898;4.902;2024-01-11T14:47:04;17.80;95.70
20654;DHT22;21083;50.898;4.902;2024-01-11T14:49:33;17.90;95.70
20654;DHT22;21083;50.898;4.902;2024-01-11T14:52:01;17.80;95.60
20654;DHT22;21083;50.898;4.902;2024-01-11T14:54:28;17.80;95.30
20654;DHT22;21083;50.898;4.902;2024-01-11T14:56:55;17.50;95.90
20654;DHT22;21083;50.898;4.902;2024-01-11T14:59:24;17.60;94.90
20654;DHT22;21083;50.898;4.902;2024-01-11T15:01:52;17.20;95.40
20654;DHT22;21083;50.898;4.902;2024-01-11T15:04:20;16.80;95.90
20654;DHT22;21083;50.898;4.902;2024-01-11T15:06:48;16.50;95.80
20654;DHT22;21083;50.898;4.902;2024-01-11T15:09:16;16.30;95.70
20654;DHT22;21083;50.898;4.902;2024-01-11T15:11:43;16.10;95.60
20654;DHT22;21083;50.898;4.902;2024-01-11T15:14:10;15.80;96.10
20654;DHT22;21083;50.898;4.902;2024-01-11T15:16:39;15.70;95.70
20654;DHT22;21083;50.898;4.902;2024-01-11T15:19:11;15.60;96.20
20654;DHT22;21083;50.898;4.902;2024-01-11T15:21:38;15.10;96.60
20654;DHT22;21083;50.898;4.902;2024-01-11T15:24:06;14.80;96.60
20654;DHT22;21083;50.898;4.902;2024-01-11T15:26:33;14.50;97.30
20654;DHT22;21083;50.898;4.902;2024-01-11T15:29:01;14.20;97.60
20654;DHT22;21083;50.898;4.902;2024-01-11T15:31:29;13.60;98.10
20654;DHT22;21083;50.898;4.902;2024-01-11T15:33:56;13.00;99.10
20654;DHT22;21083;50.898;4.902;2024-01-11T15:36:25;12.40;99.50
20654;DHT22;21083;50.898;4.902;2024-01-11T15:38:54;11.60;99.90
20654;DHT22;21083;50.898;4.902;2024-01-11T15:41:21;10.70;99.90
20654;DHT22;21083;50.898;4.902;2024-01-11T15:43:48;10.00;99.90
20654;DHT22;21083;50.898;4.902;2024-01-11T15:46:17;9.10;99.90
20654;DHT22;21083;50.898;4.902;2024-01-11T15:48:44;8.50;99.90
20654;DHT22;21083;50.898;4.902;2024-01-11T15:51:11;7.90;99.90
20654;DHT22;21083;50.898;4.902;2024-01-11T15:53:39;7.40;99.90
20654;DHT22;21083;50.898;4.902;2024-01-11T15:56:06;6.80;99.90
20654;DHT22;21083;50.898;4.902;2024-01-11T15:58:35;6.40;99.90
20654;DHT22;21083;50.898;4.902;2024-01-11T16:01:02;6.10;99.90
20654;DHT22;21083;50.898;4.902;2024-01-11T16:03:29;5.70;99.90
20654;DHT22;21083;50.898;4.902;2024-01-11T16:05:56;5.40;99.90
20654;DHT22;21083;50.898;4.902;2024-01-11T16:08:23;5.20;99.90
20654;DHT22;21083;50.898;4.902;2024-01-11T16:10:52;4.90;99.90
20654;DHT22;21083;50.898;4.902;2024-01-11T16:13:19;4.80;99.90
20654;DHT22;21083;50.898;4.902;2024-01-11T16:15:46;4.70;99.90
20654;DHT22;21083;50.898;4.902;2024-01-11T16:18:13;4.60;99.90
20654;DHT22;21083;50.898;4.902;2024-01-11T16:20:43;4.40;99.90